Map

Track Data

SID SEASON NUMBER BASIN SUBBASIN NAME ISO_TIME NATURE LAT LON WMO_WIND WMO_PRES WMO_AGENCY TRACK_TYPE DIST2LAND LANDFALL IFLAG USA_AGENCY USA_ATCF_ID USA_LAT USA_LON USA_RECORD USA_STATUS USA_WIND USA_PRES USA_SSHS USA_R34_NE USA_R34_SE USA_R34_SW USA_R34_NW USA_R50_NE USA_R50_SE USA_R50_SW USA_R50_NW USA_R64_NE USA_R64_SE USA_R64_SW USA_R64_NW USA_POCI USA_ROCI USA_RMW USA_EYE TOKYO_LAT TOKYO_LON TOKYO_GRADE TOKYO_WIND TOKYO_PRES TOKYO_R50_DIR TOKYO_R50_LONG TOKYO_R50_SHORT TOKYO_R30_DIR TOKYO_R30_LONG TOKYO_R30_SHORT TOKYO_LAND CMA_LAT CMA_LON CMA_CAT CMA_WIND CMA_PRES HKO_LAT HKO_LON HKO_CAT HKO_WIND HKO_PRES NEWDELHI_LAT NEWDELHI_LON NEWDELHI_GRADE NEWDELHI_WIND NEWDELHI_PRES NEWDELHI_CI NEWDELHI_DP NEWDELHI_POCI REUNION_LAT REUNION_LON REUNION_TYPE REUNION_WIND REUNION_PRES REUNION_TNUM REUNION_CI REUNION_RMW REUNION_R34_NE REUNION_R34_SE REUNION_R34_SW REUNION_R34_NW REUNION_R50_NE REUNION_R50_SE REUNION_R50_SW REUNION_R50_NW REUNION_R64_NE REUNION_R64_SE REUNION_R64_SW REUNION_R64_NW BOM_LAT BOM_LON BOM_TYPE BOM_WIND BOM_PRES BOM_TNUM BOM_CI BOM_RMW BOM_R34_NE BOM_R34_SE BOM_R34_SW BOM_R34_NW BOM_R50_NE BOM_R50_SE BOM_R50_SW BOM_R50_NW BOM_R64_NE BOM_R64_SE BOM_R64_SW BOM_R64_NW BOM_ROCI BOM_POCI BOM_EYE BOM_POS_METHOD BOM_PRES_METHOD NADI_LAT NADI_LON NADI_CAT NADI_WIND NADI_PRES WELLINGTON_LAT WELLINGTON_LON WELLINGTON_WIND WELLINGTON_PRES DS824_LAT DS824_LON DS824_STAGE DS824_WIND DS824_PRES TD9636_LAT TD9636_LON TD9636_STAGE TD9636_WIND TD9636_PRES TD9635_LAT TD9635_LON TD9635_WIND TD9635_PRES TD9635_ROCI NEUMANN_LAT NEUMANN_LON NEUMANN_CLASS NEUMANN_WIND NEUMANN_PRES MLC_LAT MLC_LON MLC_CLASS MLC_WIND MLC_PRES USA_GUST BOM_GUST BOM_GUST_PER REUNION_GUST REUNION_GUST_PER USA_SEAHGT USA_SEARAD_NE USA_SEARAD_SE USA_SEARAD_SW USA_SEARAD_NW STORM_SPEED STORM_DIR
1991046S18150 1991 5 SP EA DAPHNE 1991-02-15 00:00:00 TS -17.5000 150.000 main 332 321 O___________O_ jtwc_sh SH111991 -17.5000 150.000 15 -1 -17.5000 150.000 TC 15 5 270
1991046S18150 1991 5 SP EA DAPHNE 1991-02-15 03:00:00 TS -17.5001 149.750 main 321 306 P___________P_ SH111991 -17.5001 149.750 15 -1 -17.5001 149.750 TC 15 5 270
1991046S18150 1991 5 SP EA DAPHNE 1991-02-15 06:00:00 TS -17.5000 149.500 main 306 292 O___________O_ jtwc_sh SH111991 -17.5000 149.500 15 -1 -17.5000 149.500 TC 15 5 270
1991046S18150 1991 5 SP EA DAPHNE 1991-02-15 09:00:00 TS -17.5000 149.250 main 292 271 P___________P_ SH111991 -17.5000 149.250 17 -1 -17.5000 149.250 TC 17 5 270
1991046S18150 1991 5 SP EA DAPHNE 1991-02-15 12:00:00 TS -17.5000 149.000 main 271 258 O___________O_ jtwc_sh SH111991 -17.5000 149.000 20 -1 -17.5000 149.000 TC 20 5 270
1991046S18150 1991 5 SP EA DAPHNE 1991-02-15 15:00:00 TS -17.5000 148.750 main 258 242 P___________P_ SH111991 -17.5000 148.750 20 -1 -17.5000 148.750 TC 20 5 270
1991046S18150 1991 5 SP EA DAPHNE 1991-02-15 18:00:00 TS -17.5000 148.500 main 242 232 O___________O_ jtwc_sh SH111991 -17.5000 148.500 20 -1 -17.5000 148.500 TC 20 5 271
1991046S18150 1991 5 SP EA DAPHNE 1991-02-15 21:00:00 TS -17.4925 148.250 main 222 201 P___________P_ SH111991 -17.4925 148.250 20 -1 -17.4925 148.250 TC 20 5 270
1991046S18150 1991 5 SP EA DAPHNE 1991-02-16 00:00:00 TS -17.5000 148.000 main 201 180 O___________O_ jtwc_sh SH111991 -17.5000 148.000 20 -1 -17.5000 148.000 TC 20 5 264
1991046S18150 1991 5 SP EA DAPHNE 1991-02-16 03:00:00 TS -17.5425 147.750 main 180 148 P___________P_ SH111991 -17.5425 147.750 22 -1 -17.5425 147.750 TC 22 5 258
1991046S18150 1991 5 SP EA DAPHNE 1991-02-16 06:00:00 TS -17.6000 147.500 main 148 127 O___________O_ jtwc_sh SH111991 -17.6000 147.500 25 -1 -17.6000 147.500 TC 25 5 259
1991046S18150 1991 5 SP EA DAPHNE 1991-02-16 09:00:00 TS -17.6350 147.250 main 116 95 P___________P_ SH111991 -17.6350 147.250 25 -1 -17.6350 147.250 TC 25 5 258
1991046S18150 1991 5 SP EA DAPHNE 1991-02-16 12:00:00 TS -17.7000 147.000 main 95 74 O___________O_ jtwc_sh SH111991 -17.7000 147.000 25 -1 -17.7000 147.000 TC 25 5 245
1991046S18150 1991 5 SP EA DAPHNE 1991-02-16 15:00:00 TS -17.8575 146.750 main 74 47 P___________P_ SH111991 -17.8575 146.750 25 -1 -17.8575 146.750 TC 25 6 238
1991046S18150 1991 5 SP EA DAPHNE 1991-02-16 18:00:00 TS -18.0000 146.500 main 47 30 O___________O_ jtwc_sh SH111991 -18.0000 146.500 25 -1 -18.0000 146.500 TC 25 5 251
1991046S18150 1991 5 SP EA DAPHNE 1991-02-16 21:00:00 TS -18.0149 146.257 main 30 0 P___________P_ SH111991 -18.0149 146.257 27 -1 -18.0149 146.257 TC 27 5 270
1991046S18150 1991 5 SP EA DAPHNE 1991-02-17 00:00:00 TS -18.0000 146.000 main 0 0 O___________O_ jtwc_sh SH111991 -18.0000 146.000 30 -1 -18.0000 146.000 TC 30 5 268
1991046S18150 1991 5 SP EA DAPHNE 1991-02-17 03:00:00 TS -18.0350 145.707 main 0 0 P___________P_ SH111991 -18.0350 145.707 30 -1 -18.0350 145.707 TC 30 6 260
1991046S18150 1991 5 SP EA DAPHNE 1991-02-17 06:00:00 TS -18.1000 145.400 main 0 0 O___________O_ jtwc_sh SH111991 -18.1000 145.400 30 -1 -18.1000 145.400 TC 30 6 254
1991046S18150 1991 5 SP EA DAPHNE 1991-02-17 09:00:00 TS -18.1999 145.115 main 0 0 P___________P_ SH111991 -18.1999 145.115 30 -1 -18.1999 145.115 TC 30 6 251
1991046S18150 1991 5 SP EA DAPHNE 1991-02-17 12:00:00 TS -18.3000 144.800 main 0 0 O___________O_ jtwc_sh SH111991 -18.3000 144.800 30 -1 -18.3000 144.800 TC 30 6 257
1991046S18150 1991 5 SP EA DAPHNE 1991-02-17 15:00:00 TS -18.3497 144.452 main 0 0 P___________P_ SH111991 -18.3497 144.452 27 -1 -18.3497 144.452 TC 27 8 262
1991046S18150 1991 5 SP EA DAPHNE 1991-02-17 18:00:00 TS -18.4000 144.000 main 0 0 O___________O_ jtwc_sh SH111991 -18.4000 144.000 25 -1 -18.4000 144.000 TC 25 10 261
1991046S18150 1991 5 SP EA DAPHNE 1991-02-17 21:00:00 TS -18.5074 143.403 main 0 0 P___________P_ SH111991 -18.5074 143.403 22 -1 -18.5074 143.403 TC 22 13 261
1991046S18150 1991 5 SP EA DAPHNE 1991-02-18 00:00:00 TS -18.6000 142.700 main 0 0 O___________O_ jtwc_sh SH111991 -18.6000 142.700 20 -1 -18.6000 142.700 TC 20 14 265
1991046S18150 1991 5 SP EA DAPHNE 1991-02-18 03:00:00 TS -18.6148 141.972 main 0 0 P___________P_ SH111991 -18.6148 141.972 20 -1 -18.6148 141.972 TC 20 14 270
1991046S18150 1991 5 SP EA DAPHNE 1991-02-18 06:00:00 TS -18.6000 141.200 main 0 0 O___________O_ jtwc_sh SH111991 -18.6000 141.200 20 -1 -18.6000 141.200 TC 20 15 271
1991046S18150 1991 5 SP EA DAPHNE 1991-02-18 09:00:00 TS -18.5998 140.400 main 0 0 P___________P_ SH111991 -18.5998 140.400 17 -1 -18.5998 140.400 TC 17 15 270
1991046S18150 1991 5 SP EA DAPHNE 1991-02-18 12:00:00 TS -18.6000 139.600 main 0 0 O___________O_ jtwc_sh SH111991 -18.6000 139.600 15 -1 -18.6000 139.600 TC 15 15 270
1991046S18150 1991 5 SP EA DAPHNE 1991-02-18 15:00:00 TS -18.5998 138.828 main 0 0 P___________P_ SH111991 -18.5998 138.828 15 -1 -18.5998 138.828 TC 15 14 270
1991046S18150 1991 5 SP EA DAPHNE 1991-02-18 18:00:00 TS -18.6000 138.100 main 0 0 O___________O_ jtwc_sh SH111991 -18.6000 138.100 15 -1 -18.6000 138.100 TC 15 13 270
1991046S18150 1991 5 SP EA DAPHNE 1991-02-18 21:00:00 TS -18.5997 137.428 main 0 0 P___________P_ SH111991 -18.5997 137.428 15 -1 -18.5997 137.428 TC 15 12 270
1991046S18150 1991 5 SP EA DAPHNE 1991-02-19 00:00:00 TS -18.6000 136.800 main 0 0 O___________O_ jtwc_sh SH111991 -18.6000 136.800 15 -1 -18.6000 136.800 TC 15 12 270
1991046S18150 1991 5 SP EA DAPHNE 1991-02-19 03:00:00 TS -18.5997 136.200 main 0 0 P___________P_ SH111991 -18.5997 136.200 15 -1 -18.5997 136.200 TC 15 11 270
1991046S18150 1991 5 SP EA DAPHNE 1991-02-19 06:00:00 TS -18.6000 135.600 main 0 0 O___________O_ jtwc_sh SH111991 -18.6000 135.600 15 -1 -18.6000 135.600 TC 15 12 270
1991046S18150 1991 5 SI WA DAPHNE 1991-02-19 09:00:00 TS -18.5999 134.958 main 0 0 P___________P_ SH111991 -18.5999 134.958 15 -1 -18.5999 134.958 TC 15 12 270
1991046S18150 1991 5 SI WA DAPHNE 1991-02-19 12:00:00 TS -18.6000 134.300 main 0 0 O___________O_ jtwc_sh SH111991 -18.6000 134.300 15 -1 -18.6000 134.300 TC 15 12 270
1991046S18150 1991 5 SI WA DAPHNE 1991-02-19 15:00:00 TS -18.5999 133.643 main 0 0 P___________P_ SH111991 -18.5999 133.643 15 -1 -18.5999 133.643 TC 15 12 270
1991046S18150 1991 5 SI WA DAPHNE 1991-02-19 18:00:00 TS -18.6000 133.000 main 0 0 O___________O_ jtwc_sh SH111991 -18.6000 133.000 15 -1 -18.6000 133.000 TC 15 12 270
1991046S18150 1991 5 SI WA DAPHNE 1991-02-19 21:00:00 TS -18.5997 132.393 main 0 0 P___________P_ SH111991 -18.5997 132.393 17 -1 -18.5997 132.393 TC 17 11 270
1991046S18150 1991 5 SI WA DAPHNE 1991-02-20 00:00:00 TS -18.6000 131.800 main 0 0 O___________O_ jtwc_sh SH111991 -18.6000 131.800 20 -1 -18.6000 131.800 TC 20 11 270
1991046S18150 1991 5 SI WA DAPHNE 1991-02-20 03:00:00 TS -18.5999 131.193 main 0 0 P___________P_ SH111991 -18.5999 131.193 20 -1 -18.5999 131.193 TC 20 11 270
1991046S18150 1991 5 SI WA DAPHNE 1991-02-20 06:00:00 TS -18.6000 130.600 main 0 0 O___________O_ jtwc_sh SH111991 -18.6000 130.600 20 -1 -18.6000 130.600 TC 20 11 270
1991046S18150 1991 5 SI WA DAPHNE 1991-02-20 09:00:00 TS -18.5998 130.043 main 0 0 P___________P_ SH111991 -18.5998 130.043 20 -1 -18.5998 130.043 TC 20 10 270
1991046S18150 1991 5 SI WA DAPHNE 1991-02-20 12:00:00 TS -18.6000 129.500 main 0 0 O___________O_ jtwc_sh SH111991 -18.6000 129.500 20 -1 -18.6000 129.500 TC 20 10 270
1991046S18150 1991 5 SI WA DAPHNE 1991-02-20 15:00:00 TS -18.5998 128.950 main 0 0 P___________P_ SH111991 -18.5998 128.950 20 -1 -18.5998 128.950 TC 20 10 270
1991046S18150 1991 5 SI WA DAPHNE 1991-02-20 18:00:00 TS -18.6000 128.400 main 0 0 O___________O_ jtwc_sh SH111991 -18.6000 128.400 20 -1 -18.6000 128.400 TC 20 10 270
1991046S18150 1991 5 SI WA DAPHNE 1991-02-20 21:00:00 TS -18.5998 127.857 main 0 0 P___________P_ SH111991 -18.5998 127.857 20 -1 -18.5998 127.857 TC 20 10 273
1991046S18150 1991 5 SI WA DAPHNE 1991-02-21 00:00:00 TS -18.5444 127.356 20 997 bom main 0 0 O_____O_____O_ jtwc_sh SH111991 -18.6000 127.300 20 -1 -18.1000 127.800 20 20 997 307 7 6 -18.6000 127.300 TC 20 10 274
1991046S18150 1991 5 SI WA DAPHNE 1991-02-21 03:00:00 TS -18.5259 126.808 main 0 0 P_____P_____P_ SH111991 -18.6072 126.723 22 -1 -18.2005 127.148 20 20 996 263 -18.6072 126.723 TC 22 11 271
1991046S18150 1991 5 SI WA DAPHNE 1991-02-21 06:00:00 TS -18.5182 126.209 20 996 bom main 0 0 O_____O_____O_ jtwc_sh SH111991 -18.6000 126.100 25 -1 -18.3000 126.500 20 20 996 220 7 6 -18.6000 126.100 TC 25 12 271
1991046S18150 1991 5 SI WA DAPHNE 1991-02-21 09:00:00 TS -18.5048 125.567 main 0 0 P_____P_____P_ SH111991 -18.5573 125.422 25 -1 -18.3997 125.857 20 20 996 212 -18.5573 125.422 TC 25 13 271
1991046S18150 1991 5 SI WA DAPHNE 1991-02-21 12:00:00 TS -18.5000 124.867 20 996 bom main 0 0 O_____O_____O_ jtwc_sh SH111991 -18.5000 124.700 25 -1 -18.5000 125.200 20 20 996 205 7 6 -18.5000 124.700 TC 25 14 271
1991046S18150 1991 5 SI WA DAPHNE 1991-02-21 15:00:00 TS -18.4925 124.123 main 0 0 P_____P_____P_ SH111991 -18.4350 123.935 25 -1 -18.6074 124.500 20 22 996 196 -18.4350 123.935 TC 25 14 270
1991046S18150 1991 5 SI WA DAPHNE 1991-02-21 18:00:00 TS -18.5000 123.400 25 996 bom main 0 0 O_____O_____O_ jtwc_sh SH111991 -18.4000 123.200 25 -1 -18.7000 123.800 20 25 996 188 7 6 -18.4000 123.200 TC 25 13 268
1991046S18150 1991 5 SI WA DAPHNE 1991-02-21 21:00:00 TS -18.5286 122.758 main 0 0 P_____P_____P_ SH111991 -18.4196 122.570 27 -1 -18.7464 123.133 20 27 996 199 -18.4196 122.570 TC 27 12 265
1991046S18150 1991 5 SI WA DAPHNE 1991-02-22 00:00:00 TS -18.6000 122.167 30 996 bom main 0 0 O_____O_____O_ jtwc_sh SH111991 -18.5000 122.000 30 -1 -18.8000 122.500 20 30 996 211 7 6 -18.5000 122.000 TC 30 11 260
1991046S18150 1991 5 SI WA DAPHNE 1991-02-22 03:00:00 TS -18.7182 121.595 35 994 bom main 15 15 P_____O_____P_ SH111991 -18.6273 121.442 30 -1 -18.9000 121.900 30 35 994 161 7 6 -18.6273 121.442 TC 30 11 258
1991046S18150 1991 5 SI WA DAPHNE 1991-02-22 06:00:00 TS -18.8333 121.033 40 991 bom main 61 61 O_____O_____O_ jtwc_sh SH111991 -18.8000 120.900 30 -1 -18.9000 121.300 30 40 991 3.00000 124 7 6 -18.8000 120.900 TC 30 11 256
1991046S18150 1991 5 SI WA DAPHNE 1991-02-22 09:00:00 TS -18.9999 120.433 45 988 bom main 84 79 P_____O_____P_ SH111991 -18.9998 120.350 32 -1 -19.0000 120.600 30 45 988 3.00000 134 7 6 -18.9998 120.350 TC 32 11 253
1991046S18150 1991 5 SI WA DAPHNE 1991-02-22 12:00:00 TS -19.1667 119.900 45 986 bom main 84 84 O_____O_____O_ jtwc_sh SH111991 -19.2000 119.800 35 0 -19.1000 120.100 30 45 986 3.00000 107 7 6 -19.2000 119.800 TC 35 11 254
1991046S18150 1991 5 SI WA DAPHNE 1991-02-22 15:00:00 TS -19.3098 119.277 50 984 bom main 89 78 P_____O_____P_ SH111991 -19.3647 119.265 37 0 -19.2000 119.300 30 50 984 3.50000 107 9 7 6 -19.3647 119.265 TC 37 12 257
1991046S18150 1991 5 SI WA DAPHNE 1991-02-22 18:00:00 TS -19.4333 118.633 50 982 bom main 94 91 O_____O_____O_ jtwc_sh SH111991 -19.5000 118.700 40 0 -19.3000 118.500 30 50 982 3.50000 205 9 7 6 -19.5000 118.700 TC 40 12 260
1991046S18150 1991 5 SI WA DAPHNE 1991-02-22 21:00:00 TS -19.5283 118.010 50 982 bom main 101 94 P_____O_____P_ SH111991 -19.5924 118.065 45 0 -19.4000 117.900 30 50 982 3.50000 205 10 7 6 -19.5924 118.065 TC 45 12 260
1991046S18150 1991 5 SI WA DAPHNE 1991-02-23 00:00:00 TS -19.6333 117.400 55 980 bom main 113 89 O_____O_____O_ jtwc_sh SH111991 -19.7000 117.400 50 0 -19.5000 117.400 30 55 980 4.00000 178 11 7 6 -19.7000 117.400 TC 50 12 256
1991046S18150 1991 5 SI WA DAPHNE 1991-02-23 03:00:00 TS -19.8282 116.733 55 978 bom main 89 74 P_____O_____P_ SH111991 -19.8923 116.750 52 0 -19.7000 116.700 30 55 978 4.00000 118 9 7 6 -19.8923 116.750 TC 52 14 250
1991046S18150 1991 5 SI WA DAPHNE 1991-02-23 06:00:00 TS -20.1000 116.033 60 976 bom main 91 84 O_____O_____O_ jtwc_sh SH111991 -20.1000 116.100 55 0 -20.1000 115.900 30 60 976 4.00000 80 4 7 6 -20.1000 116.100 TC 55 14 251
1991046S18150 1991 5 SI WA DAPHNE 1991-02-23 09:00:00 TS -20.2817 115.318 60 976 bom main 109 109 P_____O_____P_ SH111991 -20.2725 115.428 55 0 -20.3000 115.100 30 60 976 4.00000 91 9 7 6 -20.2725 115.428 TC 55 13 259
1991046S18150 1991 5 SI WA DAPHNE 1991-02-23 12:00:00 TS -20.3333 114.700 60 978 bom main 152 147 O_____O_____O_ jtwc_sh SH111991 -20.4000 114.800 55 0 -20.2000 114.500 30 60 978 4.00000 118 8 7 6 -20.4000 114.800 TC 55 11 263
1991046S18150 1991 5 SI WA DAPHNE 1991-02-23 15:00:00 TS -20.4148 114.142 55 980 bom main 164 157 P_____O_____P_ SH111991 -20.4723 114.262 57 0 -20.3000 113.900 30 55 980 4.00000 124 7 6 -20.4723 114.262 TC 57 10 262
1991046S18150 1991 5 SI WA DAPHNE 1991-02-23 18:00:00 TS -20.4667 113.633 50 982 bom main 161 161 O_____O_____O_ jtwc_sh SH111991 -20.5000 113.800 60 0 -20.4000 113.300 30 50 982 3.50000 134 7 6 -20.5000 113.800 TC 60 9 266
1991046S18150 1991 5 SI WA DAPHNE 1991-02-23 21:00:00 TS -20.4716 113.208 50 984 bom main 177 177 P_____O_____P_ SH111991 -20.5074 113.362 60 0 -20.4000 112.900 30 50 984 3.50000 157 7 6 -20.5074 113.362 TC 60 7 270
1991046S18150 1991 5 SI WA DAPHNE 1991-02-24 00:00:00 TS -20.4667 112.900 45 987 bom main 193 193 O_____O_____O_ jtwc_sh SH111991 -20.5000 113.000 60 0 -20.4000 112.700 30 45 987 3.00000 211 3 6 -20.5000 113.000 TC 60 5 270
1991046S18150 1991 5 SI WA DAPHNE 1991-02-24 03:00:00 TS -20.4712 112.633 main 213 213 P_____P_____P_ SH111991 -20.4999 112.713 57 0 -20.4137 112.473 30 42 988 224 -20.4999 112.713 TC 57 4 270
1991046S18150 1991 5 SI WA DAPHNE 1991-02-24 06:00:00 TS -20.4667 112.433 40 990 bom main 228 228 O_____O_____O_ jtwc_sh SH111991 -20.5000 112.500 55 0 -20.4000 112.300 30 40 990 3.00000 238 3 6 -20.5000 112.500 TC 55 3 275
1991046S18150 1991 5 SI WA DAPHNE 1991-02-24 09:00:00 TS -20.4458 112.303 main 243 243 P_____P_____P_ SH111991 -20.5150 112.320 52 0 -20.3075 112.270 30 40 991 188 -20.5150 112.320 TC 52 2 290
1991046S18150 1991 5 SI WA DAPHNE 1991-02-24 12:00:00 TS -20.4000 112.233 40 992 bom main 250 250 O_____O_____O_ jtwc_sh SH111991 -20.5000 112.200 50 0 -20.2000 112.300 30 40 992 3.00000 139 3 6 -20.5000 112.200 TC 50 2 315
1991046S18150 1991 5 SI WA DAPHNE 1991-02-24 15:00:00 TS -20.3241 112.172 main 258 258 P_____P_____P_ SH111991 -20.4150 112.112 47 0 -20.1425 112.293 30 37 993 96 -20.4150 112.112 TC 47 2 340
1991046S18150 1991 5 SI WA DAPHNE 1991-02-24 18:00:00 TS -20.2333 112.167 35 994 bom main 266 266 O_____O_____O_ jtwc_sh SH111991 -20.3000 112.100 45 0 -20.1000 112.300 30 35 994 3.00000 53 3 6 -20.3000 112.100 TC 45 2 16
1991046S18150 1991 5 SI WA DAPHNE 1991-02-24 21:00:00 TS -20.1300 112.233 main 274 267 P_____P_____P_ SH111991 -20.1775 112.178 42 0 -20.0350 112.343 30 35 994 118 -20.1775 112.178 TC 42 2 44
1991046S18150 1991 5 SI WA DAPHNE 1991-02-25 00:00:00 TS -20.0667 112.333 35 995 bom main 267 260 O_____O_____O_ jtwc_sh SH111991 -20.1000 112.300 40 0 -20.0000 112.400 30 35 995 3.00000 184 3 6 -20.1000 112.300 TC 40 2 75
1991046S18150 1991 5 SI WA DAPHNE 1991-02-25 03:00:00 TS -20.0767 112.439 main 260 245 P_____P_____P_ SH111991 -20.1050 112.422 40 0 -20.0200 112.472 30 35 995 157 -20.1050 112.422 TC 40 2 123
1991046S18150 1991 5 SI WA DAPHNE 1991-02-25 06:00:00 TS -20.1667 112.500 35 995 bom main 245 237 O_____O_____O_ jtwc_sh SH111991 -20.2000 112.500 40 0 -20.1000 112.500 30 35 995 3.00000 130 3 6 -20.2000 112.500 TC 40 2 176
1991046S18150 1991 5 SI WA DAPHNE 1991-02-25 09:00:00 TS -20.3200 112.466 main 237 228 P_____P_____P_ SH111991 -20.3700 112.480 37 0 -20.2200 112.437 30 35 995 132 -20.3700 112.480 TC 37 4 199
1991046S18150 1991 5 SI WA DAPHNE 1991-02-25 12:00:00 TS -20.5333 112.367 35 995 bom main 228 214 O_____O_____O_ jtwc_sh SH111991 -20.6000 112.400 35 0 -20.4000 112.300 30 35 995 3.00000 134 3 6 -20.6000 112.400 TC 35 5 203
1991046S18150 1991 5 SI WA DAPHNE 1991-02-25 15:00:00 TS -20.7683 112.258 main 214 211 P_____P_____P_ SH111991 -20.8349 112.330 35 0 -20.6350 112.115 30 35 995 132 -20.8349 112.330 TC 35 6 207
1991046S18150 1991 5 SI WA DAPHNE 1991-02-25 18:00:00 TS -21.0333 112.100 35 995 bom main 220 215 O_____O_____O_ jtwc_sh SH111991 -21.1000 112.200 35 0 -20.9000 111.900 30 35 995 3.00000 130 3 6 -21.1000 112.200 TC 35 6 214
1991046S18150 1991 5 SI WA DAPHNE 1991-02-25 21:00:00 TS -21.2917 111.877 main 225 225 P_____P_____P_ SH111991 -21.3851 111.965 35 0 -21.1050 111.700 30 32 995 159 -21.3851 111.965 TC 35 7 218
1991046S18150 1991 5 SI WA DAPHNE 1991-02-26 00:00:00 TS -21.6000 111.633 30 996 bom main 234 226 O_____O_____O_ jtwc_sh SH111991 -21.7000 111.700 35 0 -21.4000 111.500 20 30 996 2.50000 188 3 6 -21.7000 111.700 TC 35 8 210
1991046S18150 1991 5 SI WA DAPHNE 1991-02-26 03:00:00 TS -21.9841 111.443 main 235 230 P_____P_____P_ SH111991 -22.0199 111.507 35 0 -21.9124 111.315 20 30 996 163 -22.0199 111.507 TC 35 9 204
1991046S18150 1991 5 SI WA DAPHNE 1991-02-26 06:00:00 TS -22.4333 111.233 30 996 bom main 247 246 O_____O_____O_ jtwc_sh SH111991 -22.4000 111.300 35 0 -22.5000 111.100 20 30 996 2.50000 139 3 6 -22.4000 111.300 TC 35 10 204
1991046S18150 1991 5 SI WA DAPHNE 1991-02-26 09:00:00 TS -22.9307 110.976 main 268 268 P_____P_____P_ SH111991 -22.8773 111.045 32 -1 -23.0374 110.837 20 30 997 134 -22.8773 111.045 TC 32 11 209
1991046S18150 1991 5 SI WA DAPHNE 1991-02-26 12:00:00 TS -23.4333 110.633 30 998 bom main 300 298 O_____O_____O_ jtwc_sh SH111991 -23.4000 110.700 30 -1 -23.5000 110.500 20 30 998 2.50000 130 3 6 -23.4000 110.700 TC 30 12 217
1991046S18150 1991 5 SI WA DAPHNE 1991-02-26 15:00:00 TS -23.8842 110.182 main 329 329 P_____P_____P_ SH111991 -23.9076 110.230 30 -1 -23.8374 110.087 20 30 998 110 -23.9076 110.230 TC 30 12 226
1991046S18150 1991 5 SI WA DAPHNE 1991-02-26 18:00:00 TS -24.2800 109.660 30 999 bom main 374 374 O_____O_____O_ jtwc_sh SH111991 -24.4000 109.700 30 -1 -24.1000 109.600 20 30 999 2.00000 91 3 6 -24.4000 109.700 TC 30 12 233
1991046S18150 1991 5 SI WA DAPHNE 1991-02-26 21:00:00 TS -24.6051 109.128 main 435 435 P_____P_____P_ SH111991 -24.8602 109.190 27 -1 -24.3500 109.065 20 27 999 -24.8602 109.190 TC 27 11 241
1991046S18150 1991 5 SI WA DAPHNE 1991-02-27 00:00:00 TS -24.8333 108.567 25 1000 bom main 487 487 O_____O_____O_ jtwc_sh SH111991 -25.3000 108.700 25 -1 -24.6000 108.500 20 25 1000 2.00000 3 6 -25.3000 108.700 TC 25 11 255
1991046S18150 1991 5 SI WA DAPHNE 1991-02-27 03:00:00 NR -24.8921 107.965 main 548 548 ______P_______ SH111991 -1 -24.8921 107.965 20 25 1000 TC 11 251
1991046S18150 1991 5 SI WA DAPHNE 1991-02-27 06:00:00 NR -25.2000 107.400 25 1000 bom main 599 599 ______O_______ -1 -25.2000 107.400 20 25 1000 2.00000 3 6 12 241
1991046S18150 1991 5 SI WA DAPHNE 1991-02-27 09:00:00 NR -25.4998 106.772 main 653 653 ______P_______ -1 -25.4998 106.772 20 25 1001 13 243
1991046S18150 1991 5 SI WA DAPHNE 1991-02-27 12:00:00 NR -25.8000 106.100 25 1002 bom main 719 719 ______O_______ -1 -25.8000 106.100 20 25 1002 1.50000 3 6 14 244
1991046S18150 1991 5 SI WA DAPHNE 1991-02-27 15:00:00 NR -26.0924 105.400 main 787 787 ______P_______ -1 -26.0924 105.400 20 25 1002 14 244
1991046S18150 1991 5 SI WA DAPHNE 1991-02-27 18:00:00 NR -26.4000 104.700 25 1002 bom main 856 856 ______O_______ -1 -26.4000 104.700 20 25 1002 1.50000 247 3 6 14 242
1991046S18150 1991 5 SI WA DAPHNE 1991-02-27 21:00:00 NR -26.7347 104.035 main 925 925 ______P_______ -1 -26.7347 104.035 20 25 1003 247 14 239
1991046S18150 1991 5 SI WA DAPHNE 1991-02-28 00:00:00 NR -27.1000 103.400 25 1004 bom main 986 986 ______O_______ -1 -27.1000 103.400 20 25 1004 1.50000 247 3 6 14 237
1991046S18150 1991 5 SI WA DAPHNE 1991-02-28 03:00:00 NR -27.4776 102.755 main 1048 1048 ______P_______ -1 -27.4776 102.755 20 25 1004 13 233
1991046S18150 1991 5 SI WA DAPHNE 1991-02-28 06:00:00 NR -27.9000 102.200 25 1004 bom main 1111 1111 ______O_______ -1 -27.9000 102.200 20 25 1004 1.50000 3 6 12 223
1991046S18150 1991 5 SI WA DAPHNE 1991-02-28 09:00:00 NR -28.3824 101.803 main 1158 1158 ______P_______ -1 -28.3824 101.803 20 25 1004 12 212
1991046S18150 1991 5 SI WA DAPHNE 1991-02-28 12:00:00 NR -28.9000 101.500 25 1004 bom main 1196 ______O_______ -1 -28.9000 101.500 20 25 1004 1.50000 3 6 12 207

Digital Typhoon Data and Search

About IBTrACS Database

This database is a web-friendly format of International Best Track Archive for Climate Stewardship (IBTrACS), a global best track data archive curated by NOAA dating back to 1842.

Updated: 2021-11-26